Time;durP1;ratioP1;P1;durP2;ratioP2;P2;SDS_P1;SDS_P2;PMS_P1;PMS_P2;Temp;Humidity;BMP_temperature;BMP_pressure;BME280_temperature;BME280_humidity;BME280_pressure;Samples;Min_cycle;Max_cycle;Signal;HPM_P1;HPM_P2
2022/01/29 00:00:37;;;;;;;;;;;;;;;26.17;59.48;97362.20;625476;227;62876;-62
2022/01/29 00:03:04;;;;;;;;;;;;;;;26.18;60.42;97365.69;625462;227;65274;-62
2022/01/29 00:05:31;;;;;;;;;;;;;;;26.15;60.07;97374.36;625495;227;65065;-62
2022/01/29 00:07:59;;;;;;;;;;;;;;;26.15;60.37;97364.37;625473;227;62741;-62
2022/01/29 00:10:26;;;;;;;;;;;;;;;26.13;60.52;97374.64;625445;227;64895;-62
2022/01/29 00:12:54;;;;;;;;;;;;;;;26.12;59.96;97367.67;625503;227;64474;-62
2022/01/29 00:15:21;;;;;;;;;;;;;;;26.10;60.88;97365.26;625509;227;62925;-62
2022/01/29 00:17:49;;;;;;;;;;;;;;;26.09;60.41;97371.75;625516;227;64434;-62
2022/01/29 00:20:16;;;;;;;;;;;;;;;26.09;60.57;97366.36;625480;227;64772;-62
2022/01/29 00:22:44;;;;;;;;;;;;;;;26.08;58.58;97369.34;625461;227;62732;-62
2022/01/29 00:25:11;;;;;;;;;;;;;;;26.07;60.44;97378.53;625482;227;67176;-61
2022/01/29 00:27:40;;;;;;;;;;;;;;;26.07;61.88;97373.93;625506;227;64669;-62
2022/01/29 00:30:10;;;;;;;;;;;;;;;26.05;60.93;97378.02;625533;227;65192;-62
2022/01/29 00:32:37;;;;;;;;;;;;;;;26.05;61.07;97375.32;625510;227;66976;-62
2022/01/29 00:35:05;;;;;;;;;;;;;;;26.04;58.71;97379.13;625490;227;66891;-62
2022/01/29 00:37:33;;;;;;;;;;;;;;;26.03;59.88;97383.71;625458;227;65031;-62
2022/01/29 00:40:00;;;;;;;;;;;;;;;26.01;61.59;97371.63;625487;227;67048;-62
2022/01/29 00:42:28;;;;;;;;;;;;;;;26.00;60.01;97380.79;625470;227;67001;-62
2022/01/29 00:44:55;;;;;;;;;;;;;;;25.99;61.97;97371.91;625510;227;65026;-62
2022/01/29 00:47:23;;;;;;;;;;;;;;;25.98;61.32;97374.92;625434;227;67369;-62
2022/01/29 00:49:50;;;;;;;;;;;;;;;25.97;58.49;97382.17;625464;227;67116;-62
2022/01/29 00:52:18;;;;;;;;;;;;;;;25.97;59.23;97370.61;625441;227;65031;-62
2022/01/29 00:54:45;;;;;;;;;;;;;;;25.96;61.94;97360.95;623819;227;67192;-61
2022/01/29 00:57:13;;;;;;;;;;;;;;;25.93;59.52;97361.54;623344;227;67167;-62
2022/01/29 00:59:40;;;;;;;;;;;;;;;25.95;61.63;97367.44;623265;227;65040;-62
2022/01/29 01:02:13;;;;;;;;;;;;;;;25.91;62.32;97365.30;623326;227;67212;-62
2022/01/29 01:04:39;;;;;;;;;;;;;;;25.92;60.24;97358.05;623033;227;66876;-62
2022/01/29 01:07:08;;;;;;;;;;;;;;;25.91;60.62;97357.23;623305;227;65104;-62
2022/01/29 01:09:36;;;;;;;;;;;;;;;25.89;61.37;97356.75;623362;227;67163;-62
2022/01/29 01:12:04;;;;;;;;;;;;;;;25.89;60.72;97356.75;623273;227;67399;-62
2022/01/29 01:14:31;;;;;;;;;;;;;;;25.89;61.56;97348.67;623316;227;65060;-62
2022/01/29 01:16:59;;;;;;;;;;;;;;;25.88;59.94;97354.33;623335;227;67309;-62
2022/01/29 01:19:27;;;;;;;;;;;;;;;25.87;62.02;97356.23;623335;227;67031;-62
2022/01/29 01:21:54;;;;;;;;;;;;;;;25.85;61.50;97354.92;623385;227;64998;-62
2022/01/29 01:24:22;;;;;;;;;;;;;;;25.84;60.68;97354.13;623291;227;67188;-62
2022/01/29 01:26:50;;;;;;;;;;;;;;;25.85;62.30;97353.03;623324;227;67069;-62
2022/01/29 01:29:18;;;;;;;;;;;;;;;25.83;60.21;97347.13;623349;227;62945;-62
2022/01/29 01:31:46;;;;;;;;;;;;;;;25.82;61.55;97344.72;623323;227;66928;-62
2022/01/29 01:34:14;;;;;;;;;;;;;;;25.81;62.11;97352.00;623344;227;67059;-62
2022/01/29 01:36:54;;;;;;;;;;;;;;;25.80;61.69;97353.08;623351;227;64979;-62
2022/01/29 01:39:17;;;;;;;;;;;;;;;25.77;60.52;97348.28;622994;227;65218;-62
2022/01/29 01:41:52;;;;;;;;;;;;;;;25.79;60.76;97358.77;623241;227;67008;-62
2022/01/29 01:44:17;;;;;;;;;;;;;;;25.77;61.60;97353.67;622992;227;64876;-62
2022/01/29 01:46:42;;;;;;;;;;;;;;;25.78;61.64;97359.84;623079;227;67261;-62
2022/01/29 01:49:09;;;;;;;;;;;;;;;25.77;61.21;97348.28;623389;227;67083;-62
2022/01/29 01:51:37;;;;;;;;;;;;;;;25.75;59.58;97347.77;623285;227;65012;-67
2022/01/29 01:54:05;;;;;;;;;;;;;;;25.75;62.52;97350.46;623328;227;64957;-67
2022/01/29 01:56:32;;;;;;;;;;;;;;;25.73;60.20;97354.54;623342;227;66935;-68
2022/01/29 01:59:00;;;;;;;;;;;;;;;25.71;60.84;97354.84;623331;227;64972;-67
2022/01/29 02:01:28;;;;;;;;;;;;;;;25.71;60.31;97354.84;623368;227;67203;-62
2022/01/29 02:03:55;;;;;;;;;;;;;;;25.71;60.40;97365.62;623313;227;67114;-62
2022/01/29 02:06:23;;;;;;;;;;;;;;;25.70;60.88;97364.03;623300;227;62766;-62
2022/01/29 02:08:58;;;;;;;;;;;;;;;25.69;61.60;97362.41;623328;227;64984;-62
2022/01/29 02:11:20;;;;;;;;;;;;;;;25.68;60.34;97358.92;623114;227;66901;-62
2022/01/29 02:13:47;;;;;;;;;;;;;;;25.67;63.06;97362.72;623367;227;65098;-62
2022/01/29 02:16:15;;;;;;;;;;;;;;;25.65;62.07;97356.83;623386;227;64937;-62
2022/01/29 02:18:42;;;;;;;;;;;;;;;25.66;61.96;97354.92;623326;227;64620;-62
2022/01/29 02:21:10;;;;;;;;;;;;;;;25.66;62.50;97368.38;623323;227;66102;-62
2022/01/29 02:23:38;;;;;;;;;;;;;;;25.64;60.58;97365.18;623331;227;67243;-62
2022/01/29 02:26:05;;;;;;;;;;;;;;;25.64;61.72;97357.10;623303;227;67395;-62
2022/01/29 02:28:33;;;;;;;;;;;;;;;25.62;59.19;97351.23;623361;227;64883;-62
2022/01/29 02:31:03;;;;;;;;;;;;;;;25.63;61.88;97358.20;623320;227;67212;-62
2022/01/29 02:33:34;;;;;;;;;;;;;;;25.62;62.42;97362.00;623314;227;64827;-67
2022/01/29 02:36:02;;;;;;;;;;;;;;;25.58;61.86;97361.77;623329;227;65161;-67
2022/01/29 02:38:29;;;;;;;;;;;;;;;25.59;61.86;97368.77;623314;227;67037;-67
2022/01/29 02:41:03;;;;;;;;;;;;;;;25.58;62.07;97360.97;623365;227;67012;-68
2022/01/29 02:43:34;;;;;;;;;;;;;;;25.57;62.30;97367.45;623271;227;64991;-68
2022/01/29 02:46:29;;;;;;;;;;;;;;;25.55;61.36;97367.73;623294;227;66954;-68
2022/01/29 02:48:35;;;;;;;;;;;;;;;25.56;62.75;97358.56;621808;227;67517;-68
2022/01/29 02:51:03;;;;;;;;;;;;;;;25.53;61.95;97358.35;623309;227;64983;-68
2022/01/29 02:53:30;;;;;;;;;;;;;;;25.51;61.91;97361.35;623785;227;67392;-68
2022/01/29 02:55:58;;;;;;;;;;;;;;;25.52;62.25;97368.33;625520;227;66978;-68
2022/01/29 02:58:25;;;;;;;;;;;;;;;25.51;62.10;97360.53;625466;227;62707;-68
2022/01/29 03:00:53;;;;;;;;;;;;;;;25.50;62.73;97353.56;625481;227;64947;-68
2022/01/29 03:03:20;;;;;;;;;;;;;;;25.49;61.72;97360.05;625462;227;64984;-68
2022/01/29 03:05:48;;;;;;;;;;;;;;;25.49;62.15;97360.05;625489;227;63778;-68
2022/01/29 03:08:15;;;;;;;;;;;;;;;25.49;62.87;97368.12;625566;227;65071;-68
2022/01/29 03:10:43;;;;;;;;;;;;;;;25.47;63.06;97366.50;625452;227;64926;-68
2022/01/29 03:13:10;;;;;;;;;;;;;;;25.44;61.82;97364.39;625514;227;63778;-68
2022/01/29 03:15:38;;;;;;;;;;;;;;;25.44;63.26;97371.67;625443;227;67190;-68
2022/01/29 03:18:05;;;;;;;;;;;;;;;25.43;63.08;97365.50;625477;227;67040;-68
2022/01/29 03:20:33;;;;;;;;;;;;;;;25.43;62.35;97378.95;625527;227;65076;-68
2022/01/29 03:23:00;;;;;;;;;;;;;;;25.43;61.38;97383.53;625483;227;65028;-68
2022/01/29 03:25:28;;;;;;;;;;;;;;;25.43;63.66;97375.47;625433;227;65031;-68
2022/01/29 03:27:55;;;;;;;;;;;;;;;25.41;62.21;97380.33;625480;227;62626;-68
2022/01/29 03:30:23;;;;;;;;;;;;;;;25.39;62.86;97380.61;625484;227;65095;-68
2022/01/29 03:32:50;;;;;;;;;;;;;;;25.39;63.25;97383.30;625516;227;64706;-68
2022/01/29 03:35:18;;;;;;;;;;;;;;;25.39;62.37;97377.13;625486;227;62955;-68
2022/01/29 03:37:45;;;;;;;;;;;;;;;25.37;61.86;97381.98;625433;226;65897;-68
2022/01/29 03:40:12;;;;;;;;;;;;;;;25.36;62.52;97391.95;625421;227;67002;-68
2022/01/29 03:42:48;;;;;;;;;;;;;;;25.36;62.47;97400.02;625475;227;65080;-68
2022/01/29 03:45:10;;;;;;;;;;;;;;;25.36;61.18;97386.57;624479;227;70372;-68
2022/01/29 03:47:38;;;;;;;;;;;;;;;25.35;62.03;97393.05;625482;227;67164;-68
2022/01/29 03:50:06;;;;;;;;;;;;;;;25.33;62.25;97392.53;625477;227;65034;-68
2022/01/29 03:52:33;;;;;;;;;;;;;;;25.32;62.59;97393.64;625415;227;67322;-68
2022/01/29 03:55:01;;;;;;;;;;;;;;;25.31;62.31;97389.33;623567;227;66970;-68
2022/01/29 03:57:28;;;;;;;;;;;;;;;25.31;61.64;97392.02;623374;227;62932;-68
2022/01/29 03:59:56;;;;;;;;;;;;;;;25.31;62.65;97393.91;623354;227;64738;-68
2022/01/29 04:02:23;;;;;;;;;;;;;;;25.29;62.24;97396.91;623305;227;65620;-68
2022/01/29 04:04:51;;;;;;;;;;;;;;;25.27;60.19;97393.70;623265;227;63790;-68
2022/01/29 04:07:18;;;;;;;;;;;;;;;25.25;62.94;97396.67;623318;227;65432;-68
2022/01/29 04:09:49;;;;;;;;;;;;;;;25.25;62.24;97393.19;623323;227;65680;-68
2022/01/29 04:12:15;;;;;;;;;;;;;;;25.25;61.65;97396.67;623299;227;65213;-68
2022/01/29 04:14:43;;;;;;;;;;;;;;;25.25;61.65;97402.05;623321;227;64933;-68
2022/01/29 04:17:11;;;;;;;;;;;;;;;25.23;61.69;97401.53;623327;227;67019;-68
2022/01/29 04:19:39;;;;;;;;;;;;;;;25.23;61.29;97396.15;623282;227;64982;-68
2022/01/29 04:22:07;;;;;;;;;;;;;;;25.23;62.21;97400.73;623328;227;64588;-68
2022/01/29 04:24:34;;;;;;;;;;;;;;;25.21;61.42;97397.55;623384;227;64624;-68
2022/01/29 04:27:09;;;;;;;;;;;;;;;25.19;60.56;97394.34;623324;227;63169;-68
2022/01/29 04:29:41;;;;;;;;;;;;;;;25.18;62.53;97401.63;623125;227;64603;-68
2022/01/29 04:32:09;;;;;;;;;;;;;;;25.20;62.50;97409.39;622988;227;64622;-68
2022/01/29 04:34:31;;;;;;;;;;;;;;;25.18;61.02;97406.17;623042;227;62926;-68
2022/01/29 04:36:58;;;;;;;;;;;;;;;25.17;61.92;97410.77;623397;227;66906;-68
2022/01/29 04:39:26;;;;;;;;;;;;;;;25.19;63.47;97413.17;623335;227;66797;-68
2022/01/29 04:41:53;;;;;;;;;;;;;;;25.14;61.48;97408.63;623306;227;65031;-68
2022/01/29 04:44:21;;;;;;;;;;;;;;;25.14;62.62;97410.52;623297;227;66854;-68
2022/01/29 04:46:48;;;;;;;;;;;;;;;25.13;61.24;97417.80;623246;227;66682;-68
2022/01/29 04:49:16;;;;;;;;;;;;;;;25.13;63.09;97414.30;623338;227;65010;-68
2022/01/29 04:51:43;;;;;;;;;;;;;;;25.12;62.24;97418.06;623309;227;67197;-68
2022/01/29 04:54:11;;;;;;;;;;;;;;;25.12;63.93;97420.75;624317;227;65386;-68
2022/01/29 04:56:38;;;;;;;;;;;;;;;25.11;62.74;97425.34;625467;227;62723;-68
2022/01/29 04:59:06;;;;;;;;;;;;;;;25.09;62.63;97424.81;625412;227;67068;-68
2022/01/29 05:01:33;;;;;;;;;;;;;;;25.09;62.55;97429.41;625521;227;67140;-68
2022/01/29 05:04:01;;;;;;;;;;;;;;;25.07;61.64;97434.26;625451;227;65184;-68
2022/01/29 05:06:28;;;;;;;;;;;;;;;25.06;63.85;97435.36;625466;227;67181;-68
2022/01/29 05:08:56;;;;;;;;;;;;;;;25.05;63.20;97439.14;625481;227;67030;-68
2022/01/29 05:11:23;;;;;;;;;;;;;;;25.05;61.75;97439.14;625472;227;65049;-68
2022/01/29 05:13:51;;;;;;;;;;;;;;;25.04;63.23;97438.32;625499;227;64689;-68
2022/01/29 05:27:08;;;;;;;;;;;;;;;25.01;63.50;97463.89;625465;227;63226;-69
2022/01/29 05:29:37;;;;;;;;;;;;;;;24.98;62.31;97464.47;625445;227;67213;-68
2022/01/29 05:32:06;;;;;;;;;;;;;;;24.97;62.08;97462.08;625508;227;67006;-68
2022/01/29 05:34:34;;;;;;;;;;;;;;;24.97;63.36;97470.15;625464;227;65146;-68
2022/01/29 05:37:02;;;;;;;;;;;;;;;24.95;62.78;97473.11;625484;227;67288;-68
2022/01/29 05:39:30;;;;;;;;;;;;;;;24.94;63.04;97468.83;625454;227;64846;-68
2022/01/29 05:41:58;;;;;;;;;;;;;;;24.95;63.17;97467.73;625444;227;65396;-68
2022/01/29 05:44:26;;;;;;;;;;;;;;;24.94;63.34;97468.03;625423;227;67403;-68
2022/01/29 05:46:54;;;;;;;;;;;;;;;24.91;63.54;97472.09;625459;227;66963;-68
2022/01/29 05:49:21;;;;;;;;;;;;;;;24.90;63.50;97486.60;625473;227;65474;-68
2022/01/29 05:51:49;;;;;;;;;;;;;;;24.89;63.83;97487.70;625447;227;67273;-68
2022/01/29 05:54:17;;;;;;;;;;;;;;;24.89;62.15;97492.28;624234;227;67025;-68
2022/01/29 05:56:44;;;;;;;;;;;;;;;24.86;62.56;97496.34;623306;227;62967;-68
2022/01/29 05:59:12;;;;;;;;;;;;;;;24.88;64.71;97488.80;623324;227;64926;-68
2022/01/29 06:01:39;;;;;;;;;;;;;;;24.87;64.97;97499.83;623301;227;64724;-68
2022/01/29 06:04:07;;;;;;;;;;;;;;;24.85;65.29;97500.09;623293;227;62690;-68
2022/01/29 06:06:34;;;;;;;;;;;;;;;24.85;65.14;97501.98;623319;227;64968;-68
2022/01/29 06:09:04;;;;;;;;;;;;;;;24.84;64.75;97501.19;623314;227;65428;-68
2022/01/29 06:11:32;;;;;;;;;;;;;;;24.82;64.68;97492.59;623323;227;62850;-69
2022/01/29 06:14:00;;;;;;;;;;;;;;;24.82;65.98;97497.98;622917;227;63437;-69
2022/01/29 06:16:28;;;;;;;;;;;;;;;24.86;66.36;97500.92;623301;227;64981;-69
2022/01/29 06:18:56;;;;;;;;;;;;;;;24.83;64.99;97507.66;623151;227;65050;-69
2022/01/29 06:21:23;;;;;;;;;;;;;;;24.81;65.07;97507.94;623216;227;67085;-69
2022/01/29 06:23:51;;;;;;;;;;;;;;;24.83;65.00;97502.28;623092;227;67057;-69
2022/01/29 06:26:18;;;;;;;;;;;;;;;24.83;64.71;97502.28;622538;227;65881;-69
2022/01/29 06:28:46;;;;;;;;;;;;;;;24.84;64.71;97498.50;623271;227;64794;-69
2022/01/29 06:31:13;;;;;;;;;;;;;;;24.85;66.73;97502.78;623346;227;64897;-69
2022/01/29 06:33:40;;;;;;;;;;;;;;;24.81;65.97;97502.55;623304;227;62906;-69
2022/01/29 06:36:08;;;;;;;;;;;;;;;24.84;65.11;97509.25;623293;227;65137;-69
2022/01/29 06:38:35;;;;;;;;;;;;;;;24.83;64.97;97514.91;623382;227;64900;-69
2022/01/29 06:41:03;;;;;;;;;;;;;;;24.80;65.54;97513.61;623289;227;62824;-69
2022/01/29 06:43:31;;;;;;;;;;;;;;;24.79;65.44;97518.16;623244;227;67205;-69
2022/01/29 06:45:58;;;;;;;;;;;;;;;24.81;64.39;97520.58;623312;227;67068;-69
2022/01/29 06:48:26;;;;;;;;;;;;;;;24.78;65.11;97530.01;623152;227;65183;-69
2022/01/29 06:50:53;;;;;;;;;;;;;;;24.77;65.57;97530.28;623252;227;67209;-69
2022/01/29 06:53:21;;;;;;;;;;;;;;;24.79;68.41;97528.12;623538;227;67040;-69
2022/01/29 06:55:50;;;;;;;;;;;;;;;24.79;65.59;97536.18;625442;227;64965;-69
2022/01/29 06:58:18;;;;;;;;;;;;;;;24.78;65.08;97539.96;625359;227;67273;-68
2022/01/29 07:00:45;;;;;;;;;;;;;;;24.77;64.63;97539.17;625438;227;66983;-70
2022/01/29 07:03:12;;;;;;;;;;;;;;;24.77;65.37;97538.34;625513;227;65094;-69
2022/01/29 07:05:40;;;;;;;;;;;;;;;24.76;65.35;97552.88;625483;227;67537;-69
2022/01/29 07:08:08;;;;;;;;;;;;;;;24.68;64.02;97550.80;625439;227;67031;-70
2022/01/29 07:10:37;;;;;;;;;;;;;;;24.66;64.00;97552.95;625473;227;64873;-69
2022/01/29 07:13:04;;;;;;;;;;;;;;;24.63;65.43;97553.52;624814;225;67259;-68
2022/01/29 07:15:32;;;;;;;;;;;;;;;24.62;64.14;97559.99;627368;225;66770;-69
2022/01/29 07:17:59;;;;;;;;;;;;;;;24.59;62.54;97559.46;625404;227;65117;-68
2022/01/29 07:20:27;;;;;;;;;;;;;;;24.61;64.52;97567.26;625236;227;67214;-69
2022/01/29 07:22:54;;;;;;;;;;;;;;;24.60;63.21;97565.64;624110;227;67149;-69
2022/01/29 07:25:21;;;;;;;;;;;;;;;24.57;63.02;97572.38;625060;227;64834;-68
2022/01/29 07:27:49;;;;;;;;;;;;;;;24.54;63.25;97572.94;625268;227;67076;-67
2022/01/29 07:30:17;;;;;;;;;;;;;;;24.54;64.97;97575.63;625454;227;67096;-62
2022/01/29 07:32:44;;;;;;;;;;;;;;;24.51;59.31;97584.25;625181;227;64891;-66
2022/01/29 07:35:13;;;;;;;;;;;;;;;24.49;59.76;97581.03;625268;227;67016;-67
2022/01/29 07:37:40;;;;;;;;;;;;;;;24.54;57.90;97578.31;625446;227;67735;-67
2022/01/29 07:40:08;;;;;;;;;;;;;;;24.57;58.30;97585.80;625390;227;65092;-66
2022/01/29 07:42:37;;;;;;;;;;;;;;;24.59;58.96;97583.65;618689;227;67003;-66
2022/01/29 07:45:06;;;;;;;;;;;;;;;24.57;58.70;97580.43;625420;227;64416;-66
2022/01/29 07:47:34;;;;;;;;;;;;;;;24.57;63.26;97590.39;625366;227;65064;-68
2022/01/29 07:50:01;;;;;;;;;;;;;;;24.56;59.75;97592.28;625383;226;65124;-69
2022/01/29 07:52:30;;;;;;;;;;;;;;;24.58;58.97;97592.80;625364;226;64845;-68
2022/01/29 07:54:57;;;;;;;;;;;;;;;24.58;60.57;97595.49;625409;226;66056;-69
2022/01/29 07:57:25;;;;;;;;;;;;;;;24.58;58.97;97603.55;625443;227;67280;-68
2022/01/29 07:59:52;;;;;;;;;;;;;;;24.59;61.18;97601.66;625448;227;66913;-68
2022/01/29 08:02:20;;;;;;;;;;;;;;;24.58;60.44;97602.73;625330;226;65021;-68
2022/01/29 08:04:47;;;;;;;;;;;;;;;24.59;59.08;97604.35;625428;227;67265;-68
2022/01/29 08:07:16;;;;;;;;;;;;;;;24.58;57.63;97603.55;625160;227;64891;-67
2022/01/29 08:09:44;;;;;;;;;;;;;;;24.61;61.07;97606.74;625418;227;63018;-68
2022/01/29 08:12:11;;;;;;;;;;;;;;;24.61;62.86;97609.42;625369;227;65052;-69
2022/01/29 08:14:39;;;;;;;;;;;;;;;24.59;61.70;97607.84;625409;227;64959;-68
2022/01/29 08:17:07;;;;;;;;;;;;;;;24.61;61.05;97622.86;625329;227;62916;-67
2022/01/29 08:19:35;;;;;;;;;;;;;;;24.59;62.28;97615.09;625381;227;67069;-68
2022/01/29 08:22:02;;;;;;;;;;;;;;;24.60;64.04;97619.38;625501;227;67035;-69
2022/01/29 08:24:30;;;;;;;;;;;;;;;24.59;59.24;97617.78;625336;227;65037;-69
2022/01/29 08:26:58;;;;;;;;;;;;;;;24.62;61.22;97629.86;625427;227;67161;-69
2022/01/29 08:29:25;;;;;;;;;;;;;;;24.62;60.55;97624.48;625450;226;66382;-70
2022/01/29 08:31:53;;;;;;;;;;;;;;;24.63;61.86;97628.77;625385;227;65072;-69
2022/01/29 08:34:20;;;;;;;;;;;;;;;24.62;62.76;97641.41;625479;227;64499;-68
2022/01/29 08:36:49;;;;;;;;;;;;;;;24.64;61.88;97631.19;625382;227;63920;-68
2022/01/29 08:39:16;;;;;;;;;;;;;;;24.62;60.93;97635.23;625426;227;65056;-67
2022/01/29 08:41:44;;;;;;;;;;;;;;;24.62;60.78;97621.80;625429;227;66968;-67
2022/01/29 08:44:11;;;;;;;;;;;;;;;24.65;61.27;97623.92;625367;227;66752;-68
2022/01/29 08:46:40;;;;;;;;;;;;;;;24.66;60.83;97625.52;625108;227;65047;-68
2022/01/29 08:49:08;;;;;;;;;;;;;;;24.67;62.39;97622.56;625484;226;67042;-68
2022/01/29 08:51:36;;;;;;;;;;;;;;;24.68;62.44;97636.80;625279;227;67033;-71
2022/01/29 08:54:04;;;;;;;;;;;;;;;24.69;62.38;97633.02;625251;227;62896;-69
2022/01/29 08:56:32;;;;;;;;;;;;;;;24.68;61.42;97629.53;625294;227;64570;-67
2022/01/29 08:58:59;;;;;;;;;;;;;;;24.68;61.45;97626.05;625355;227;65123;-66
2022/01/29 09:01:28;;;;;;;;;;;;;;;24.68;59.88;97621.47;625439;227;62977;-67
2022/01/29 09:03:56;;;;;;;;;;;;;;;24.66;60.33;97622.83;625423;227;65152;-65
2022/01/29 09:06:23;;;;;;;;;;;;;;;24.71;62.34;97622.80;625329;227;64952;-67
2022/01/29 09:08:51;;;;;;;;;;;;;;;24.71;61.73;97617.42;625349;227;62728;-66
2022/01/29 09:11:19;;;;;;;;;;;;;;;24.72;62.17;97619.05;625300;227;65040;-64
2022/01/29 09:13:48;;;;;;;;;;;;;;;24.72;61.88;97625.22;625382;227;67071;-69
2022/01/29 09:16:15;;;;;;;;;;;;;;;24.73;62.30;97620.64;625349;227;62742;-68
2022/01/29 09:18:43;;;;;;;;;;;;;;;24.73;61.91;97632.19;625261;227;65708;-68
2022/01/29 09:21:10;;;;;;;;;;;;;;;24.75;61.46;97623.86;625350;227;65640;-68
2022/01/29 09:23:38;;;;;;;;;;;;;;;24.78;62.07;97628.67;625255;227;64541;-65
2022/01/29 09:26:06;;;;;;;;;;;;;;;24.76;61.02;97625.45;625439;227;67194;-73
2022/01/29 09:28:34;;;;;;;;;;;;;;;24.80;61.61;97629.20;625263;226;66832;-70
2022/01/29 09:31:01;;;;;;;;;;;;;;;24.78;59.13;97625.98;625433;227;64953;-62
2022/01/29 09:33:29;;;;;;;;;;;;;;;24.79;54.83;97631.05;625427;226;66996;-63
2022/01/29 09:35:56;;;;;;;;;;;;;;;24.84;61.02;97630.23;625369;227;67181;-73
2022/01/29 09:38:24;;;;;;;;;;;;;;;24.84;61.06;97622.16;625411;227;66432;-71
2022/01/29 09:40:53;;;;;;;;;;;;;;;24.87;61.84;97623.48;625431;226;67234;-71
2022/01/29 09:43:22;;;;;;;;;;;;;;;24.89;61.55;97621.33;625405;227;66842;-72
2022/01/29 09:45:52;;;;;;;;;;;;;;;24.93;60.82;97622.35;625460;227;64872;-69
2022/01/29 09:48:24;;;;;;;;;;;;;;;24.94;60.82;97627.46;625409;227;67233;-73
2022/01/29 09:50:52;;;;;;;;;;;;;;;24.98;61.11;97622.31;625311;227;67392;-68
2022/01/29 09:53:20;;;;;;;;;;;;;;;24.98;61.04;97612.36;625106;226;63793;-67
2022/01/29 09:55:48;;;;;;;;;;;;;;;25.00;60.76;97615.57;623245;227;64837;-69
2022/01/29 09:58:15;;;;;;;;;;;;;;;25.01;61.02;97619.85;623263;227;67124;-62
2022/01/29 10:00:43;;;;;;;;;;;;;;;25.03;60.47;97620.38;623259;227;65030;-65
2022/01/29 10:03:13;;;;;;;;;;;;;;;25.09;59.42;97610.38;623236;227;67189;-62
2022/01/29 10:05:42;;;;;;;;;;;;;;;25.13;60.12;97607.94;623298;227;66905;-69
2022/01/29 10:08:10;;;;;;;;;;;;;;;25.14;60.59;97604.16;623368;227;62980;-68
2022/01/29 10:10:39;;;;;;;;;;;;;;;25.12;60.70;97633.22;623269;227;64534;-69
2022/01/29 10:13:23;;;;;;;;;;;;;;;25.09;60.71;97607.69;623239;227;67062;-69
2022/01/29 10:15:52;;;;;;;;;;;;;;;25.08;61.88;97600.72;622298;227;62900;-69
2022/01/29 10:18:23;;;;;;;;;;;;;;;25.07;61.14;97607.16;622257;227;65252;-69
2022/01/29 10:20:51;;;;;;;;;;;;;;;25.07;61.43;97609.85;622250;227;64912;-69
2022/01/29 10:23:20;;;;;;;;;;;;;;;25.09;60.64;97606.89;623343;227;65111;-69
2022/01/29 10:25:49;;;;;;;;;;;;;;;25.10;58.86;97597.73;622975;227;67256;-69
2022/01/29 10:28:21;;;;;;;;;;;;;;;25.12;60.03;97595.56;623291;227;67008;-69
2022/01/29 10:30:51;;;;;;;;;;;;;;;25.12;60.38;97596.36;623322;227;65029;-69
2022/01/29 10:33:23;;;;;;;;;;;;;;;25.12;60.35;97596.36;623320;227;67006;-69
2022/01/29 10:35:51;;;;;;;;;;;;;;;25.15;60.84;97597.71;623304;227;67010;-69
2022/01/29 10:38:20;;;;;;;;;;;;;;;25.15;58.75;97598.51;623181;227;65057;-69
2022/01/29 10:41:08;;;;;;;;;;;;;;;25.18;58.92;97592.59;623179;227;46960;-69
2022/01/29 10:43:35;;;;;;;;;;;;;;;25.20;59.60;97597.67;622602;227;64849;-71
2022/01/29 10:46:03;;;;;;;;;;;;;;;25.22;59.54;97600.87;622697;227;64839;-71
2022/01/29 10:48:43;;;;;;;;;;;;;;;25.24;59.79;97590.65;623224;227;66986;-71
2022/01/29 10:51:11;;;;;;;;;;;;;;;25.25;58.64;97597.62;623276;227;67071;-71
2022/01/29 10:53:39;;;;;;;;;;;;;;;25.26;57.76;97596.52;623831;227;65698;-71
2022/01/29 10:56:07;;;;;;;;;;;;;;;25.28;58.91;97598.94;625436;226;67152;-70
2022/01/29 10:58:41;;;;;;;;;;;;;;;25.29;57.47;97595.16;625529;227;66659;-71
2022/01/29 11:01:16;;;;;;;;;;;;;;;25.32;58.45;97605.34;625520;227;65053;-70
2022/01/29 11:03:44;;;;;;;;;;;;;;;25.33;58.09;97610.45;625396;227;67290;-71
2022/01/29 11:06:13;;;;;;;;;;;;;;;25.33;58.25;97612.34;625435;227;67307;-64
2022/01/29 11:08:41;;;;;;;;;;;;;;;25.35;58.40;97605.59;625467;227;65075;-64
2022/01/29 11:11:09;;;;;;;;;;;;;;;25.38;56.59;97602.33;625480;227;67174;-64
2022/01/29 11:13:37;;;;;;;;;;;;;;;25.38;57.89;97604.22;625473;227;64669;-64
2022/01/29 11:16:05;;;;;;;;;;;;;;;25.39;57.49;97611.99;625459;227;62906;-64
2022/01/29 11:18:33;;;;;;;;;;;;;;;25.42;56.74;97606.03;625442;227;67308;-64
2022/01/29 11:21:02;;;;;;;;;;;;;;;25.44;57.99;97613.84;625470;227;66831;-64
2022/01/29 11:23:31;;;;;;;;;;;;;;;25.44;57.08;97603.87;625477;227;65108;-64
2022/01/29 11:26:00;;;;;;;;;;;;;;;25.46;56.47;97603.59;625452;227;67320;-64
2022/01/29 11:28:28;;;;;;;;;;;;;;;25.48;55.79;97598.70;625465;227;67049;-64
2022/01/29 11:31:19;;;;;;;;;;;;;;;25.50;57.91;97601.13;625077;226;65005;-64
2022/01/29 11:33:50;;;;;;;;;;;;;;;25.51;58.45;97591.95;624964;226;65186;-65
2022/01/29 11:36:17;;;;;;;;;;;;;;;25.52;55.84;97594.38;615828;227;64928;-66
2022/01/29 11:38:45;;;;;;;;;;;;;;;25.54;55.90;97602.17;625470;227;63021;-66
2022/01/29 11:41:12;;;;;;;;;;;;;;;25.57;56.59;97596.22;625319;227;64959;-66
2022/01/29 11:43:40;;;;;;;;;;;;;;;25.57;55.34;97591.63;625489;227;64871;-66
2022/01/29 11:46:25;;;;;;;;;;;;;;;25.60;54.80;97595.63;625164;227;62794;-65
2022/01/29 11:48:53;;;;;;;;;;;;;;;25.60;54.93;97593.73;625382;227;66855;-64
2022/01/29 11:51:37;;;;;;;;;;;;;;;25.63;54.89;97586.98;625431;226;65725;-64
2022/01/29 11:54:05;;;;;;;;;;;;;;;25.64;54.74;97597.45;625409;227;65065;-64
2022/01/29 11:56:33;;;;;;;;;;;;;;;25.64;55.52;97588.58;625443;227;67264;-64
2022/01/29 11:59:19;;;;;;;;;;;;;;;25.65;55.42;97590.20;625440;227;67004;-64
2022/01/29 12:01:47;;;;;;;;;;;;;;;25.67;54.16;97580.75;625445;227;65037;-64
2022/01/29 12:04:16;;;;;;;;;;;;;;;25.68;54.98;97582.34;625406;227;67219;-64
2022/01/29 12:06:48;;;;;;;;;;;;;;;25.71;53.66;97578.27;625488;227;65114;-64
2022/01/29 12:09:21;;;;;;;;;;;;;;;25.73;54.45;97573.41;620535;227;63050;-64
2022/01/29 12:12:06;;;;;;;;;;;;;;;25.74;54.65;97574.20;625451;227;64893;-64
2022/01/29 12:14:34;;;;;;;;;;;;;;;25.75;54.23;97576.59;625405;226;66815;-66
2022/01/29 12:17:02;;;;;;;;;;;;;;;25.78;53.67;97567.97;625439;227;64898;-64
2022/01/29 12:19:40;;;;;;;;;;;;;;;25.78;54.36;97565.27;625496;227;65426;-69
2022/01/29 12:22:10;;;;;;;;;;;;;;;25.81;54.26;97564.69;625444;227;64882;-68
2022/01/29 12:24:37;;;;;;;;;;;;;;;25.82;54.11;97568.97;625352;227;63793;-68
2022/01/29 12:27:05;;;;;;;;;;;;;;;25.83;53.08;97569.77;625407;227;64853;-68
2022/01/29 12:29:33;;;;;;;;;;;;;;;25.87;52.94;97568.15;625435;227;67116;-69
2022/01/29 12:32:00;;;;;;;;;;;;;;;25.88;53.68;97570.53;625419;227;64856;-69
2022/01/29 12:34:28;;;;;;;;;;;;;;;25.90;53.90;97567.56;625473;227;64972;-69
2022/01/29 12:37:15;;;;;;;;;;;;;;;25.90;52.60;97565.67;625514;227;66678;-69
2022/01/29 12:39:44;;;;;;;;;;;;;;;25.93;54.53;97569.67;625477;227;62954;-69
2022/01/29 12:44:42;;;;;;;;;;;;;;;25.96;54.01;97570.98;625504;227;66663;-69
2022/01/29 12:47:11;;;;;;;;;;;;;;;25.97;52.47;97567.98;625435;226;65023;-69
2022/01/29 12:49:40;;;;;;;;;;;;;;;25.99;52.91;97570.41;624848;226;67213;-69
2022/01/29 12:52:12;;;;;;;;;;;;;;;26.00;52.30;97566.61;625360;227;64706;-69
2022/01/29 12:54:37;;;;;;;;;;;;;;;26.01;52.38;97568.23;623253;227;62903;-68
2022/01/29 12:57:05;;;;;;;;;;;;;;;26.02;52.98;97559.05;623384;227;64533;-69
2022/01/29 12:59:36;;;;;;;;;;;;;;;26.03;52.92;97555.28;623197;227;65396;-69
2022/01/29 13:02:04;;;;;;;;;;;;;;;26.05;52.75;97558.47;623203;227;65123;-69
2022/01/29 13:04:32;;;;;;;;;;;;;;;26.05;53.71;97553.87;623244;227;67162;-69
2022/01/29 13:07:01;;;;;;;;;;;;;;;26.07;52.81;97556.28;623272;227;64997;-69